createdAt,value
2023-04-16T00:00:20.857Z,83.80
2023-04-16T00:01:11.660Z,83.80
2023-04-16T00:02:02.553Z,83.80
2023-04-16T00:02:53.603Z,83.69
2023-04-16T00:03:44.634Z,83.69
2023-04-16T00:04:35.618Z,83.69
2023-04-16T00:05:26.382Z,83.80
2023-04-16T00:06:17.222Z,83.80
2023-04-16T00:07:08.020Z,83.90
2023-04-16T00:07:58.808Z,83.90
2023-04-16T00:08:49.583Z,83.90
2023-04-16T00:09:40.359Z,84.00
2023-04-16T00:10:31.160Z,84.00
2023-04-16T00:11:21.936Z,83.96
2023-04-16T00:12:12.745Z,84.00
2023-04-16T00:13:03.510Z,84.00
2023-04-16T00:13:54.278Z,84.06
2023-04-16T00:14:45.059Z,84.06
2023-04-16T00:15:35.849Z,84.06
2023-04-16T00:16:26.652Z,83.96
2023-04-16T00:17:17.402Z,84.06
2023-04-16T00:18:08.185Z,84.06
2023-04-16T00:18:58.966Z,83.96
2023-04-16T00:19:49.739Z,83.86
2023-04-16T00:20:40.526Z,83.86
2023-04-16T00:21:31.364Z,83.86
2023-04-16T00:22:22.139Z,83.86
2023-04-16T00:23:12.937Z,83.76
2023-04-16T00:24:03.711Z,83.76
2023-04-16T00:24:54.485Z,83.65
2023-04-16T00:25:45.291Z,83.65
2023-04-16T00:26:36.089Z,83.55
2023-04-16T00:27:26.858Z,83.45
2023-04-16T00:28:17.620Z,83.34
2023-04-16T00:29:08.734Z,83.34
2023-04-16T00:29:59.691Z,83.25
2023-04-16T00:30:50.494Z,83.34
2023-04-16T00:31:41.233Z,83.45
2023-04-16T00:32:32.040Z,83.45
2023-04-16T00:33:22.805Z,83.45
2023-04-16T00:34:13.598Z,83.45
2023-04-16T00:35:04.382Z,83.45
2023-04-16T00:35:55.168Z,83.34
2023-04-16T00:36:45.941Z,83.34
2023-04-16T00:37:36.713Z,83.25
2023-04-16T00:38:27.491Z,83.25
2023-04-16T00:39:18.267Z,83.34
2023-04-16T00:40:09.063Z,83.25
2023-04-16T00:40:59.879Z,83.14
2023-04-16T00:41:50.661Z,83.14
2023-04-16T00:42:41.450Z,83.14
2023-04-16T00:43:32.223Z,83.14
2023-04-16T00:44:23.014Z,83.04
2023-04-16T00:45:14.551Z,83.04
2023-04-16T00:46:04.746Z,83.14
2023-04-16T00:46:55.514Z,82.93
2023-04-16T00:47:46.334Z,82.83
2023-04-16T00:48:37.048Z,82.73
2023-04-16T00:49:27.830Z,82.73
2023-04-16T00:50:18.641Z,82.73
2023-04-16T00:51:09.424Z,82.73
2023-04-16T00:52:00.231Z,82.73
2023-04-16T00:52:51.014Z,82.69
2023-04-16T00:53:41.800Z,82.59
2023-04-16T00:54:32.572Z,82.49
2023-04-16T00:55:23.374Z,82.39
2023-04-16T00:56:14.160Z,82.39
2023-04-16T00:57:04.952Z,82.28
2023-04-16T00:57:55.729Z,82.39
2023-04-16T00:58:46.499Z,82.39
2023-04-16T00:59:37.291Z,82.39
2023-04-16T01:00:28.075Z,82.39
2023-04-16T01:01:18.905Z,82.18
2023-04-16T01:02:09.740Z,82.08
2023-04-16T01:03:00.647Z,82.08
2023-04-16T01:03:51.548Z,81.98
2023-04-16T01:04:42.335Z,81.87
2023-04-16T01:05:33.113Z,81.87
2023-04-16T01:06:23.904Z,81.77
2023-04-16T01:07:14.684Z,81.77
2023-04-16T01:08:05.445Z,81.77
2023-04-16T01:08:56.224Z,81.77
2023-04-16T01:09:47.039Z,81.77
2023-04-16T01:10:37.799Z,81.77
2023-04-16T01:11:28.579Z,81.77
2023-04-16T01:12:19.364Z,81.77
2023-04-16T01:13:10.158Z,81.87
2023-04-16T01:14:00.910Z,81.77
2023-04-16T01:14:51.693Z,81.67
2023-04-16T01:15:42.491Z,81.57
2023-04-16T01:16:33.283Z,81.57
2023-04-16T01:17:24.116Z,81.57
2023-04-16T01:18:14.869Z,81.57
2023-04-16T01:19:05.644Z,81.67
2023-04-16T01:19:56.453Z,81.57
2023-04-16T01:20:47.247Z,81.46
2023-04-16T01:21:38.026Z,81.57
2023-04-16T01:22:28.793Z,81.46
2023-04-16T01:23:19.590Z,81.36
2023-04-16T01:24:10.379Z,81.46
2023-04-16T01:25:01.148Z,81.46
2023-04-16T01:25:51.914Z,81.46
2023-04-16T01:26:42.753Z,81.36
2023-04-16T01:27:33.489Z,81.26
2023-04-16T01:28:24.282Z,81.26
2023-04-16T01:29:15.041Z,81.26
2023-04-16T01:30:05.845Z,81.26
2023-04-16T01:30:56.771Z,81.26
2023-04-16T01:31:47.601Z,81.26
2023-04-16T01:32:38.381Z,81.36
2023-04-16T01:33:29.137Z,81.46
2023-04-16T01:34:19.905Z,81.46
2023-04-16T01:35:10.686Z,81.57
2023-04-16T01:36:01.480Z,81.57
2023-04-16T01:36:52.272Z,81.46
2023-04-16T01:37:43.053Z,81.57
2023-04-16T01:38:33.853Z,81.46
2023-04-16T01:39:24.628Z,81.46
2023-04-16T01:40:15.444Z,81.46
2023-04-16T01:41:06.276Z,81.46
2023-04-16T01:41:57.027Z,81.57
2023-04-16T01:42:47.816Z,81.57
2023-04-16T01:43:40.335Z,81.57
2023-04-16T01:44:29.261Z,81.46
2023-04-16T01:45:20.040Z,81.46
2023-04-16T01:46:10.869Z,81.46
2023-04-16T01:47:01.692Z,81.57
2023-04-16T01:47:52.477Z,81.46
2023-04-16T01:48:43.240Z,81.46
2023-04-16T01:49:34.019Z,81.57
2023-04-16T01:50:24.792Z,81.67
2023-04-16T01:51:15.597Z,81.87
2023-04-16T01:52:06.366Z,81.87
2023-04-16T01:52:57.171Z,81.98
2023-04-16T01:53:47.959Z,82.08
2023-04-16T01:54:38.744Z,81.98
2023-04-16T01:55:29.545Z,81.87
2023-04-16T01:56:20.313Z,81.87
2023-04-16T01:57:11.122Z,81.98
2023-04-16T01:58:01.900Z,81.98
2023-04-16T01:58:52.725Z,82.08
2023-04-16T01:59:43.494Z,82.08
2023-04-16T02:00:34.302Z,81.98
2023-04-16T02:01:25.187Z,81.87
2023-04-16T02:02:16.042Z,81.87
2023-04-16T02:03:06.930Z,81.87
2023-04-16T02:03:57.791Z,81.87
2023-04-16T02:04:48.548Z,81.87
2023-04-16T02:05:39.360Z,81.87
2023-04-16T02:06:30.157Z,81.87
2023-04-16T02:07:20.925Z,81.87
2023-04-16T02:08:11.712Z,81.98
2023-04-16T02:09:02.497Z,81.98
2023-04-16T02:09:53.282Z,81.98
2023-04-16T02:10:44.085Z,82.08
2023-04-16T02:11:34.863Z,82.18
2023-04-16T02:12:25.686Z,82.18
2023-04-16T02:13:16.492Z,82.28
2023-04-16T02:14:07.290Z,82.28
2023-04-16T02:14:58.062Z,82.28
2023-04-16T02:15:48.849Z,82.28
2023-04-16T02:16:39.685Z,82.28
2023-04-16T02:17:30.479Z,82.28
2023-04-16T02:18:21.230Z,82.28
2023-04-16T02:19:12.030Z,82.39
2023-04-16T02:20:02.802Z,82.39
2023-04-16T02:20:53.571Z,82.28
2023-04-16T02:21:44.360Z,82.28
2023-04-16T02:22:35.156Z,82.18
2023-04-16T02:23:25.943Z,82.28
2023-04-16T02:24:16.727Z,82.28
2023-04-16T02:25:07.493Z,82.18
2023-04-16T02:25:58.285Z,82.08
2023-04-16T02:26:49.092Z,81.98
2023-04-16T02:27:39.863Z,81.98
2023-04-16T02:28:30.656Z,82.08
2023-04-16T02:29:21.437Z,81.84
2023-04-16T02:30:12.224Z,81.87
2023-04-16T02:31:02.999Z,81.84
2023-04-16T02:31:53.831Z,81.84
2023-04-16T02:32:44.611Z,81.94
2023-04-16T02:33:35.352Z,82.04
2023-04-16T02:34:26.173Z,82.04
2023-04-16T02:35:16.929Z,81.94
2023-04-16T02:36:07.740Z,81.94
2023-04-16T02:36:58.485Z,82.04
2023-04-16T02:37:49.282Z,82.04
2023-04-16T02:38:40.056Z,82.04
2023-04-16T02:39:30.831Z,82.04
2023-04-16T02:40:21.616Z,81.94
2023-04-16T02:41:12.402Z,81.94
2023-04-16T02:42:03.184Z,82.04
2023-04-16T02:42:53.948Z,82.04
2023-04-16T02:43:44.722Z,82.04
2023-04-16T02:44:35.534Z,82.14
2023-04-16T02:45:26.298Z,82.24
2023-04-16T02:46:17.092Z,82.35
2023-04-16T02:47:07.854Z,82.35
2023-04-16T02:47:58.648Z,82.35
2023-04-16T02:48:49.403Z,82.35
2023-04-16T02:49:40.188Z,82.24
2023-04-16T02:50:31.001Z,82.24
2023-04-16T02:51:21.773Z,82.24
2023-04-16T02:52:14.960Z,82.35
2023-04-16T02:53:03.620Z,82.24
2023-04-16T02:53:54.382Z,82.35
2023-04-16T02:54:45.162Z,82.35
2023-04-16T02:55:35.943Z,82.24
2023-04-16T02:56:26.670Z,82.24
2023-04-16T02:57:17.436Z,82.24
2023-04-16T02:58:08.230Z,82.14
2023-04-16T02:58:58.999Z,82.14
2023-04-16T02:59:49.790Z,82.24
2023-04-16T03:00:40.535Z,82.24
2023-04-16T03:01:31.384Z,82.24
2023-04-16T03:02:22.192Z,82.24
2023-04-16T03:03:13.044Z,82.14
2023-04-16T03:04:03.832Z,82.24
2023-04-16T03:04:54.553Z,82.24
2023-04-16T03:05:45.333Z,82.24
2023-04-16T03:06:36.118Z,82.35
2023-04-16T03:07:26.907Z,82.24
2023-04-16T03:08:17.702Z,82.24
2023-04-16T03:09:08.631Z,82.14
2023-04-16T03:09:59.508Z,82.24
2023-04-16T03:10:50.327Z,82.24
2023-04-16T03:11:41.086Z,82.24
2023-04-16T03:12:31.877Z,82.35
2023-04-16T03:13:22.657Z,82.45
2023-04-16T03:14:13.443Z,82.45
2023-04-16T03:15:04.259Z,82.35
2023-04-16T03:15:55.065Z,82.35
2023-04-16T03:16:45.840Z,82.35
2023-04-16T03:17:36.685Z,82.35
2023-04-16T03:18:27.447Z,82.45
2023-04-16T03:19:18.205Z,82.45
2023-04-16T03:20:08.987Z,82.45
2023-04-16T03:20:59.770Z,82.55
2023-04-16T03:21:50.549Z,82.55
2023-04-16T03:22:41.308Z,82.55
2023-04-16T03:23:32.105Z,82.45
2023-04-16T03:24:22.885Z,82.45
2023-04-16T03:25:13.669Z,82.45
2023-04-16T03:26:04.476Z,82.45
2023-04-16T03:26:55.285Z,82.55
2023-04-16T03:27:46.030Z,82.55
2023-04-16T03:28:36.802Z,82.55
2023-04-16T03:29:27.579Z,82.65
2023-04-16T03:30:18.371Z,82.65
2023-04-16T03:31:09.196Z,82.65
2023-04-16T03:31:59.871Z,82.86
2023-04-16T03:32:51.198Z,82.76
2023-04-16T03:33:42.380Z,82.76
2023-04-16T03:34:33.555Z,82.76
2023-04-16T03:35:24.736Z,82.86
2023-04-16T03:36:15.872Z,82.86
2023-04-16T03:37:06.759Z,82.96
2023-04-16T03:37:58.049Z,82.96
2023-04-16T03:38:49.020Z,82.86
2023-04-16T03:39:39.719Z,82.76
2023-04-16T03:40:30.481Z,82.76
2023-04-16T03:41:21.257Z,82.86
2023-04-16T03:42:12.020Z,82.96
2023-04-16T03:43:02.775Z,82.96
2023-04-16T03:43:53.543Z,82.96
2023-04-16T03:44:44.341Z,82.86
2023-04-16T03:45:35.094Z,82.86
2023-04-16T03:46:25.888Z,82.86
2023-04-16T03:47:16.646Z,82.86
2023-04-16T03:48:07.395Z,82.86
2023-04-16T03:48:58.200Z,82.86
2023-04-16T03:49:48.933Z,82.96
2023-04-16T03:50:39.696Z,82.96
2023-04-16T03:51:30.556Z,83.06
2023-04-16T03:52:21.422Z,82.96
2023-04-16T03:53:12.274Z,82.96
2023-04-16T03:54:03.172Z,83.06
2023-04-16T03:54:54.036Z,83.17
2023-04-16T03:55:44.882Z,83.17
2023-04-16T03:56:35.745Z,83.17
2023-04-16T03:57:26.708Z,83.17
2023-04-16T03:58:17.505Z,83.27
2023-04-16T03:59:08.525Z,83.27
2023-04-16T03:59:59.431Z,83.17
2023-04-16T04:00:50.467Z,83.17
2023-04-16T04:01:41.384Z,83.17
2023-04-16T04:02:32.403Z,83.06
2023-04-16T04:03:23.467Z,82.96
2023-04-16T04:04:14.683Z,82.96
2023-04-16T04:05:05.466Z,82.96
2023-04-16T04:05:56.460Z,82.96
2023-04-16T04:06:47.324Z,82.96
2023-04-16T04:07:38.183Z,82.96
2023-04-16T04:08:29.050Z,82.96
2023-04-16T04:09:19.934Z,82.96
2023-04-16T04:10:10.770Z,82.86
2023-04-16T04:11:01.640Z,82.96
2023-04-16T04:11:52.508Z,83.06
2023-04-16T04:12:43.374Z,83.06
2023-04-16T04:13:34.252Z,83.06
2023-04-16T04:14:25.089Z,83.17
2023-04-16T04:15:15.989Z,83.27
2023-04-16T04:16:06.930Z,83.27
2023-04-16T04:16:57.792Z,83.17
2023-04-16T04:17:48.700Z,83.17
2023-04-16T04:18:39.528Z,83.17
2023-04-16T04:19:30.402Z,83.27
2023-04-16T04:20:21.270Z,83.27
2023-04-16T04:21:12.152Z,83.27
2023-04-16T04:22:03.025Z,83.27
2023-04-16T04:22:53.922Z,83.27
2023-04-16T04:23:44.764Z,83.37
2023-04-16T04:24:35.650Z,83.47
2023-04-16T04:25:26.510Z,83.47
2023-04-16T04:26:17.417Z,83.47
2023-04-16T04:27:08.321Z,83.37
2023-04-16T04:27:59.205Z,83.37
2023-04-16T04:28:50.089Z,83.37
2023-04-16T04:29:40.958Z,83.37
2023-04-16T04:30:31.856Z,83.37
2023-04-16T04:31:22.789Z,83.47
2023-04-16T04:32:13.611Z,83.47
2023-04-16T04:33:04.523Z,83.47
2023-04-16T04:33:55.388Z,83.47
2023-04-16T04:34:46.256Z,83.47
2023-04-16T04:35:37.139Z,83.47
2023-04-16T04:36:28.038Z,83.47
2023-04-16T04:37:18.912Z,83.58
2023-04-16T04:38:09.798Z,83.68
2023-04-16T04:39:00.662Z,83.68
2023-04-16T04:39:51.583Z,83.58
2023-04-16T04:40:42.462Z,83.58
2023-04-16T04:41:33.337Z,83.58
2023-04-16T04:42:24.232Z,83.58
2023-04-16T04:43:15.105Z,83.58
2023-04-16T04:44:05.983Z,83.58
2023-04-16T04:44:56.870Z,83.68
2023-04-16T04:45:47.803Z,83.58
2023-04-16T04:46:38.673Z,83.47
2023-04-16T04:47:29.531Z,83.37
2023-04-16T04:48:20.402Z,83.33
2023-04-16T04:49:11.576Z,83.37
2023-04-16T04:50:02.528Z,83.33
2023-04-16T04:50:53.386Z,83.23
2023-04-16T04:51:44.255Z,83.23
2023-04-16T04:52:35.133Z,83.27
2023-04-16T04:53:26.010Z,83.23
2023-04-16T04:54:16.889Z,83.33
2023-04-16T04:55:07.786Z,83.37
2023-04-16T04:56:05.425Z,83.33
2023-04-16T04:56:49.542Z,83.33
2023-04-16T04:57:40.410Z,83.33
2023-04-16T04:58:31.337Z,83.33
2023-04-16T04:59:22.203Z,83.23
2023-04-16T05:00:13.105Z,83.33
2023-04-16T05:01:04.010Z,83.33
2023-04-16T05:01:54.904Z,83.33
2023-04-16T05:02:45.878Z,83.33
2023-04-16T05:03:36.917Z,83.33
2023-04-16T05:04:27.768Z,83.23
2023-04-16T05:05:18.680Z,83.23
2023-04-16T05:06:09.536Z,83.13
2023-04-16T05:07:00.419Z,83.13
2023-04-16T05:07:51.287Z,83.13
2023-04-16T05:08:42.164Z,83.23
2023-04-16T05:09:33.066Z,83.23
2023-04-16T05:10:23.913Z,83.33
2023-04-16T05:11:14.775Z,83.44
2023-04-16T05:12:05.656Z,83.44
2023-04-16T05:12:56.551Z,83.44
2023-04-16T05:13:47.429Z,83.44
2023-04-16T05:14:38.309Z,83.44
2023-04-16T05:15:29.214Z,83.44
2023-04-16T05:16:20.123Z,83.33
2023-04-16T05:17:10.993Z,83.33
2023-04-16T05:18:01.883Z,83.33
2023-04-16T05:18:52.721Z,83.33
2023-04-16T05:19:43.599Z,83.33
2023-04-16T05:20:34.493Z,83.44
2023-04-16T05:21:25.388Z,83.44
2023-04-16T05:22:16.262Z,83.23
2023-04-16T05:23:07.148Z,83.23
2023-04-16T05:23:58.046Z,83.13
2023-04-16T05:24:48.901Z,83.23
2023-04-16T05:25:39.772Z,83.23
2023-04-16T05:26:30.645Z,83.23
2023-04-16T05:27:21.522Z,83.13
2023-04-16T05:28:12.400Z,83.13
2023-04-16T05:29:03.273Z,83.13
2023-04-16T05:29:54.144Z,83.23
2023-04-16T05:30:45.051Z,83.23
2023-04-16T05:31:35.935Z,83.19
2023-04-16T05:32:26.858Z,83.23
2023-04-16T05:33:17.693Z,83.19
2023-04-16T05:34:08.570Z,83.19
2023-04-16T05:34:59.453Z,83.19
2023-04-16T05:35:50.340Z,83.19
2023-04-16T05:36:41.232Z,83.19
2023-04-16T05:37:32.118Z,83.19
2023-04-16T05:38:23.030Z,83.09
2023-04-16T05:39:13.921Z,83.03
2023-04-16T05:40:04.795Z,83.09
2023-04-16T05:40:55.678Z,83.23
2023-04-16T05:41:46.596Z,83.23
2023-04-16T05:42:37.479Z,83.29
2023-04-16T05:43:28.350Z,83.19
2023-04-16T05:44:19.215Z,83.19
2023-04-16T05:45:10.097Z,83.23
2023-04-16T05:46:01.057Z,83.19
2023-04-16T05:46:51.943Z,83.23
2023-04-16T05:47:42.882Z,83.33
2023-04-16T05:48:33.707Z,83.33
2023-04-16T05:49:24.621Z,83.29
2023-04-16T05:50:15.493Z,83.29
2023-04-16T05:51:06.388Z,83.33
2023-04-16T05:51:57.284Z,83.33
2023-04-16T05:52:48.175Z,83.39
2023-04-16T05:53:39.070Z,83.50
2023-04-16T05:54:30.027Z,83.50
2023-04-16T05:55:20.889Z,83.50
2023-04-16T05:56:11.803Z,83.50
2023-04-16T05:57:02.706Z,83.60
2023-04-16T05:57:53.562Z,83.70
2023-04-16T05:58:44.465Z,83.70
2023-04-16T05:59:35.352Z,83.60
2023-04-16T06:00:26.240Z,83.60
2023-04-16T06:01:17.147Z,83.60
2023-04-16T06:02:08.084Z,83.60
2023-04-16T06:02:59.108Z,83.60
2023-04-16T06:03:50.107Z,83.50
2023-04-16T06:04:41.023Z,83.29
2023-04-16T06:05:31.970Z,83.29
2023-04-16T06:06:22.850Z,83.29
2023-04-16T06:07:13.729Z,83.29
2023-04-16T06:08:04.623Z,83.19
2023-04-16T06:08:55.510Z,83.19
2023-04-16T06:09:46.417Z,83.29
2023-04-16T06:10:37.297Z,83.39
2023-04-16T06:11:28.196Z,83.39
2023-04-16T06:12:19.092Z,83.29
2023-04-16T06:13:10.016Z,83.29
2023-04-16T06:14:00.924Z,83.39
2023-04-16T06:14:51.844Z,83.39
2023-04-16T06:15:42.741Z,83.39
2023-04-16T06:16:33.658Z,83.50
2023-04-16T06:17:24.541Z,83.60
2023-04-16T06:18:15.587Z,83.60
2023-04-16T06:19:06.457Z,83.60
2023-04-16T06:19:57.344Z,83.60
2023-04-16T06:20:48.235Z,83.50
2023-04-16T06:21:39.120Z,83.39
2023-04-16T06:22:30.007Z,83.25
2023-04-16T06:23:20.899Z,83.29
2023-04-16T06:24:11.793Z,83.15
2023-04-16T06:25:02.686Z,83.15
2023-04-16T06:25:53.586Z,83.05
2023-04-16T06:26:44.488Z,83.05
2023-04-16T06:27:35.383Z,82.95
2023-04-16T06:28:26.333Z,82.95
2023-04-16T06:29:17.243Z,82.95
2023-04-16T06:30:08.165Z,82.95
2023-04-16T06:30:59.073Z,82.95
2023-04-16T06:31:50.082Z,82.84
2023-04-16T06:32:41.127Z,82.64
2023-04-16T06:33:32.023Z,82.64
2023-04-16T06:34:22.922Z,82.75
2023-04-16T06:35:13.828Z,82.84
2023-04-16T06:36:04.752Z,82.75
2023-04-16T06:36:55.649Z,82.75
2023-04-16T06:37:46.576Z,82.64
2023-04-16T06:38:37.475Z,82.54
2023-04-16T06:39:28.365Z,82.43
2023-04-16T06:40:19.293Z,82.43
2023-04-16T06:41:10.188Z,82.43
2023-04-16T06:42:01.100Z,82.43
2023-04-16T06:42:51.996Z,82.43
2023-04-16T06:43:42.905Z,82.50
2023-04-16T06:44:34.582Z,82.40
2023-04-16T06:45:24.860Z,82.40
2023-04-16T06:46:15.792Z,82.29
2023-04-16T06:47:06.685Z,82.09
2023-04-16T06:47:57.602Z,81.99
2023-04-16T06:48:48.492Z,82.09
2023-04-16T06:49:39.410Z,82.09
2023-04-16T06:50:30.312Z,82.09
2023-04-16T06:51:21.242Z,82.09
2023-04-16T06:52:12.164Z,81.99
2023-04-16T06:53:03.041Z,81.99
2023-04-16T06:53:53.961Z,81.99
2023-04-16T06:54:44.903Z,81.88
2023-04-16T06:55:35.828Z,81.88
2023-04-16T06:56:26.739Z,81.88
2023-04-16T06:57:17.636Z,81.88
2023-04-16T06:58:08.554Z,81.88
2023-04-16T06:58:59.461Z,81.79
2023-04-16T06:59:50.372Z,81.68
2023-04-16T07:00:41.297Z,81.58
2023-04-16T07:01:32.230Z,81.38
2023-04-16T07:02:23.204Z,81.48
2023-04-16T07:03:14.187Z,81.48
2023-04-16T07:04:05.333Z,81.48
2023-04-16T07:04:55.883Z,81.48
2023-04-16T07:05:46.805Z,81.48
2023-04-16T07:06:37.704Z,81.58
2023-04-16T07:07:28.628Z,81.48
2023-04-16T07:08:19.548Z,81.48
2023-04-16T07:09:10.735Z,81.48
2023-04-16T07:10:01.254Z,81.58
2023-04-16T07:10:52.152Z,81.58
2023-04-16T07:11:43.075Z,81.68
2023-04-16T07:12:33.996Z,81.79
2023-04-16T07:13:24.922Z,81.79
2023-04-16T07:14:15.876Z,81.79
2023-04-16T07:15:06.755Z,81.79
2023-04-16T07:15:57.662Z,81.68
2023-04-16T07:16:48.606Z,81.48
2023-04-16T07:17:39.545Z,81.48
2023-04-16T07:18:30.410Z,81.58
2023-04-16T07:19:21.331Z,81.58
2023-04-16T07:20:12.226Z,81.58
2023-04-16T07:21:03.125Z,81.58
2023-04-16T07:21:54.059Z,81.48
2023-04-16T07:22:44.968Z,81.38
2023-04-16T07:23:35.883Z,81.38
2023-04-16T07:24:26.778Z,81.38
2023-04-16T07:25:17.673Z,81.48
2023-04-16T07:26:08.595Z,81.38
2023-04-16T07:26:59.557Z,81.38
2023-04-16T07:27:50.474Z,81.38
2023-04-16T07:28:41.380Z,81.48
2023-04-16T07:29:32.304Z,81.58
2023-04-16T07:30:23.199Z,81.48
2023-04-16T07:31:14.091Z,81.38
2023-04-16T07:32:05.132Z,81.38
2023-04-16T07:32:56.081Z,81.38
2023-04-16T07:33:46.977Z,81.38
2023-04-16T07:34:37.912Z,81.38
2023-04-16T07:35:28.804Z,81.27
2023-04-16T07:36:19.744Z,81.38
2023-04-16T07:37:10.629Z,81.38
2023-04-16T07:38:01.542Z,81.27
2023-04-16T07:38:52.451Z,81.17
2023-04-16T07:39:43.355Z,80.97
2023-04-16T07:40:34.265Z,80.97
2023-04-16T07:41:25.166Z,80.97
2023-04-16T07:42:16.078Z,81.07
2023-04-16T07:43:06.997Z,81.03
2023-04-16T07:43:57.904Z,80.97
2023-04-16T07:44:48.802Z,80.93
2023-04-16T07:45:40.955Z,80.83
2023-04-16T07:46:39.308Z,80.83
2023-04-16T07:47:22.395Z,80.83
2023-04-16T07:48:12.048Z,80.93
2023-04-16T07:49:02.955Z,80.93
2023-04-16T07:49:53.908Z,80.73
2023-04-16T07:50:44.784Z,80.62
2023-04-16T07:51:35.704Z,80.62
2023-04-16T07:52:26.622Z,80.52
2023-04-16T07:53:17.537Z,80.62
2023-04-16T07:54:08.445Z,80.62
2023-04-16T07:54:59.350Z,80.62
2023-04-16T07:55:50.270Z,80.62
2023-04-16T07:56:41.212Z,80.62
2023-04-16T07:57:32.127Z,80.62
2023-04-16T07:58:23.035Z,80.52
2023-04-16T07:59:22.747Z,80.52
2023-04-16T08:00:05.854Z,80.62
2023-04-16T08:00:55.554Z,80.62
2023-04-16T08:01:46.457Z,80.48
2023-04-16T08:02:37.543Z,80.48
2023-04-16T08:03:28.876Z,80.38
2023-04-16T08:04:19.411Z,80.38
2023-04-16T08:05:10.384Z,80.38
2023-04-16T08:06:01.302Z,80.28
2023-04-16T08:06:52.230Z,80.28
2023-04-16T08:07:43.126Z,80.28
2023-04-16T08:08:34.030Z,80.07
2023-04-16T08:09:24.950Z,80.07
2023-04-16T08:10:15.845Z,80.07
2023-04-16T08:11:06.737Z,80.18
2023-04-16T08:11:57.651Z,80.28
2023-04-16T08:12:48.546Z,80.18
2023-04-16T08:13:39.479Z,80.07
2023-04-16T08:14:30.361Z,79.87
2023-04-16T08:15:21.269Z,79.87
2023-04-16T08:16:12.228Z,79.87
2023-04-16T08:17:03.125Z,79.97
2023-04-16T08:17:54.071Z,79.97
2023-04-16T08:18:44.949Z,79.87
2023-04-16T08:19:36.606Z,79.77
2023-04-16T08:20:26.885Z,79.77
2023-04-16T08:21:17.764Z,79.87
2023-04-16T08:22:08.683Z,79.77
2023-04-16T08:22:59.604Z,79.77
2023-04-16T08:23:50.528Z,79.87
2023-04-16T08:24:41.463Z,79.87
2023-04-16T08:25:32.352Z,79.87
2023-04-16T08:26:23.272Z,79.77
2023-04-16T08:27:18.482Z,79.77
2023-04-16T08:28:06.093Z,79.66
2023-04-16T08:28:55.876Z,79.66
2023-04-16T08:29:46.730Z,79.66
2023-04-16T08:30:37.649Z,79.57
2023-04-16T08:31:28.569Z,79.57
2023-04-16T08:32:19.541Z,79.46
2023-04-16T08:33:10.469Z,79.36
2023-04-16T08:34:01.329Z,79.36
2023-04-16T08:34:52.254Z,79.36
2023-04-16T08:35:43.181Z,79.46
2023-04-16T08:36:34.069Z,79.66
2023-04-16T08:37:25.041Z,79.77
2023-04-16T08:38:15.956Z,79.87
2023-04-16T08:39:06.861Z,80.07
2023-04-16T08:39:57.779Z,80.07
2023-04-16T08:40:48.702Z,80.07
2023-04-16T08:41:39.618Z,80.18
2023-04-16T08:42:30.528Z,80.38
2023-04-16T08:43:21.455Z,80.34
2023-04-16T08:44:13.109Z,80.24
2023-04-16T08:45:03.346Z,80.24
2023-04-16T08:45:54.260Z,80.24
2023-04-16T08:46:45.246Z,80.34
2023-04-16T08:47:36.179Z,80.41
2023-04-16T08:48:27.070Z,80.41
2023-04-16T08:49:17.995Z,80.30
2023-04-16T08:50:08.902Z,80.10
2023-04-16T08:50:59.831Z,80.10
2023-04-16T08:51:50.723Z,80.10
2023-04-16T08:52:41.622Z,80.00
2023-04-16T08:53:32.618Z,79.69
2023-04-16T08:54:23.526Z,79.35
2023-04-16T08:55:14.480Z,79.25
2023-04-16T08:56:05.375Z,79.14
2023-04-16T08:56:57.614Z,79.04
2023-04-16T08:57:47.274Z,79.04
2023-04-16T08:58:38.182Z,78.94
2023-04-16T08:59:29.109Z,78.84
2023-04-16T09:00:20.013Z,78.94
2023-04-16T09:01:10.913Z,78.84
2023-04-16T09:02:01.903Z,78.64
2023-04-16T09:02:53.067Z,78.53
2023-04-16T09:03:43.674Z,78.43
2023-04-16T09:04:34.720Z,78.33
2023-04-16T09:05:25.687Z,78.43
2023-04-16T09:06:16.623Z,78.64
2023-04-16T09:07:07.507Z,78.74
2023-04-16T09:07:59.160Z,78.74
2023-04-16T09:08:49.462Z,78.53
2023-04-16T09:09:40.390Z,78.43
2023-04-16T09:10:31.300Z,78.33
2023-04-16T09:11:22.205Z,78.23
2023-04-16T09:12:13.120Z,78.23
2023-04-16T09:13:04.028Z,78.39
2023-04-16T09:13:56.154Z,78.39
2023-04-16T09:14:45.848Z,78.30
2023-04-16T09:15:36.749Z,78.19
2023-04-16T09:16:27.675Z,78.39
2023-04-16T09:17:18.609Z,78.39
2023-04-16T09:18:09.520Z,78.30
2023-04-16T09:19:00.430Z,78.09
2023-04-16T09:19:51.343Z,77.98
2023-04-16T09:20:42.253Z,77.68
2023-04-16T09:21:33.752Z,77.58
2023-04-16T09:22:24.022Z,77.58
2023-04-16T09:23:15.473Z,77.58
2023-04-16T09:24:05.785Z,77.68
2023-04-16T09:24:56.700Z,77.89
2023-04-16T09:25:47.611Z,77.89
2023-04-16T09:26:38.552Z,77.89
2023-04-16T09:27:29.490Z,77.89
2023-04-16T09:28:20.382Z,77.89
2023-04-16T09:29:11.480Z,77.89
2023-04-16T09:30:02.506Z,77.89
2023-04-16T09:30:53.430Z,77.89
2023-04-16T09:31:44.375Z,77.89
2023-04-16T09:32:35.352Z,77.89
2023-04-16T09:33:26.216Z,77.89
2023-04-16T09:34:17.130Z,77.89
2023-04-16T09:35:08.062Z,77.89
2023-04-16T09:35:59.007Z,77.89
2023-04-16T09:36:49.936Z,77.89
2023-04-16T09:37:40.829Z,77.98
2023-04-16T09:38:31.733Z,78.09
2023-04-16T09:39:22.652Z,78.09
2023-04-16T09:40:13.571Z,77.98
2023-04-16T09:41:04.482Z,78.19
2023-04-16T09:41:55.388Z,78.30
2023-04-16T09:42:46.324Z,78.39
2023-04-16T09:43:37.221Z,78.39
2023-04-16T09:44:28.139Z,78.30
2023-04-16T09:45:19.046Z,78.30
2023-04-16T09:46:10.004Z,78.39
2023-04-16T09:47:00.865Z,78.19
2023-04-16T09:47:51.851Z,78.19
2023-04-16T09:48:42.750Z,78.09
2023-04-16T09:49:33.672Z,78.30
2023-04-16T09:50:24.570Z,78.39
2023-04-16T09:51:15.494Z,78.30
2023-04-16T09:52:06.421Z,78.12
2023-04-16T09:52:57.314Z,78.12
2023-04-16T09:53:48.227Z,78.12
2023-04-16T09:54:39.137Z,78.12
2023-04-16T09:55:30.059Z,78.33
2023-04-16T09:56:20.967Z,78.39
2023-04-16T09:57:11.900Z,78.39
2023-04-16T09:58:02.803Z,78.50
2023-04-16T09:58:53.725Z,78.30
2023-04-16T09:59:44.634Z,78.50
2023-04-16T10:00:35.551Z,78.70
2023-04-16T10:01:27.502Z,78.80
2023-04-16T10:02:17.189Z,78.91
2023-04-16T10:03:08.237Z,78.80
2023-04-16T10:03:59.304Z,78.80
2023-04-16T10:04:50.540Z,78.91
2023-04-16T10:05:41.420Z,79.11
2023-04-16T10:06:32.335Z,79.00
2023-04-16T10:07:23.258Z,78.91
2023-04-16T10:08:14.176Z,78.60
2023-04-16T10:09:05.080Z,78.39
2023-04-16T10:09:56.004Z,78.50
2023-04-16T10:10:46.899Z,78.70
2023-04-16T10:11:37.818Z,78.80
2023-04-16T10:12:28.749Z,78.60
2023-04-16T10:13:19.649Z,78.50
2023-04-16T10:14:10.566Z,78.50
2023-04-16T10:15:01.541Z,78.19
2023-04-16T10:15:52.417Z,77.98
2023-04-16T10:16:43.389Z,77.98
2023-04-16T10:17:34.277Z,77.68
2023-04-16T10:18:25.155Z,77.48
2023-04-16T10:19:16.065Z,77.58
2023-04-16T10:20:07.012Z,77.58
2023-04-16T10:20:57.884Z,77.68
2023-04-16T10:21:48.803Z,77.78
2023-04-16T10:22:39.753Z,77.98
2023-04-16T10:23:30.629Z,77.89
2023-04-16T10:24:21.563Z,77.78
2023-04-16T10:25:12.457Z,77.78
2023-04-16T10:26:03.382Z,77.68
2023-04-16T10:26:54.285Z,77.58
2023-04-16T10:27:45.202Z,77.37
2023-04-16T10:28:36.129Z,77.51
2023-04-16T10:29:27.045Z,77.72
2023-04-16T10:30:18.024Z,78.02
2023-04-16T10:31:08.994Z,78.12
2023-04-16T10:31:59.872Z,78.23
2023-04-16T10:32:50.791Z,78.12
2023-04-16T10:33:41.682Z,78.02
2023-04-16T10:34:32.596Z,78.02
2023-04-16T10:35:23.518Z,78.12
2023-04-16T10:36:14.413Z,78.23
2023-04-16T10:37:05.332Z,78.43
2023-04-16T10:37:56.248Z,78.33
2023-04-16T10:38:47.139Z,78.43
2023-04-16T10:39:38.044Z,78.53
2023-04-16T10:40:28.938Z,78.64
2023-04-16T10:41:19.858Z,78.64
2023-04-16T10:42:10.755Z,78.64
2023-04-16T10:43:01.699Z,78.74
2023-04-16T10:43:52.579Z,78.53
2023-04-16T10:44:45.503Z,78.33
2023-04-16T10:45:34.099Z,78.02
2023-04-16T10:46:25.034Z,78.12
2023-04-16T10:47:15.911Z,78.12
2023-04-16T10:48:06.837Z,78.12
2023-04-16T10:48:57.756Z,78.02
2023-04-16T10:49:48.676Z,78.02
2023-04-16T10:50:39.602Z,77.92
2023-04-16T10:51:30.505Z,77.72
2023-04-16T10:52:21.414Z,77.72
2023-04-16T10:53:12.337Z,78.02
2023-04-16T10:54:03.230Z,78.12
2023-04-16T10:54:54.136Z,78.27